Date,TemperatureHighF,TemperatureAvgF,TemperatureLowF,DewpointHighF,DewpointAvgF,DewpointLowF,HumidityHigh,HumidityAvg,HumidityLow,PressureMaxIn,PressureMinIn,WindSpeedMaxMPH,WindSpeedAvgMPH,GustSpeedMaxMPH,PrecipitationSumIn
2013-3-1,33.5,31.4,29.0,31.0,28.4,24.0,95,89,81,29.89,29.76,12,6,15,0.03
2013-3-2,30.7,27.9,25.4,25.0,22.1,19.0,89,79,68,29.92,29.88,15,8,17,0.00
2013-3-3,31.9,27.3,24.0,24.0,22.0,19.9,88,80,65,29.92,29.87,15,7,18,0.00
2013-3-4,36.4,29.4,20.3,30.0,24.3,18.0,93,82,64,29.95,29.78,13,6,18,0.00
2013-3-5,34.5,32.5,27.3,32.8,30.4,26.0,95,92,85,29.81,29.47,18,8,18,0.08
2013-3-6,33.1,29.4,26.8,29.4,27.3,24.8,96,92,86,30.08,29.57,15,9,26,0.15
2013-3-7,35.3,31.5,28.4,31.0,27.7,25.0,93,86,73,30.22,30.07,12,5,14,0.06
2013-3-8,39.7,31.2,23.0,30.3,25.8,20.5,92,81,62,30.30,30.18,8,3,12,0.00
2013-3-9,49.7,40.4,29.8,40.4,33.5,25.9,87,77,62,30.19,29.76,19,9,20,0.00
2013-3-10,64.9,55.9,49.9,46.1,40.8,36.8,66,57,43,29.75,29.52,18,11,26,0.00
2013-3-11,58.2,45.2,33.0,49.2,41.6,30.9,96,88,58,29.64,29.38,27,12,29,0.17
2013-3-12,40.3,33.8,30.7,31.1,29.1,25.6,93,83,67,29.83,29.64,25,14,29,0.00
2013-3-13,32.0,28.1,25.2,29.7,23.3,19.3,92,82,69,30.14,29.82,22,13,26,0.00
2013-3-14,39.8,32.6,22.7,31.0,24.6,19.0,90,73,51,30.16,29.96,12,6,15,0.00
2013-3-15,48.5,38.5,29.7,41.0,34.3,28.0,94,85,72,29.96,29.58,12,4,12,0.02
2013-3-16,43.9,38.8,32.6,41.0,36.3,29.0,96,91,85,29.86,29.41,18,6,22,0.00
2013-3-17,37.1,32.4,29.5,29.1,26.6,23.0,88,79,71,29.98,29.80,19,10,21,0.00
2013-3-18,41.0,35.1,31.2,40.0,33.3,28.0,97,93,85,29.81,29.38,22,8,28,0.19
2013-3-19,38.0,30.5,24.8,29.8,21.6,16.0,86,70,54,29.91,29.64,35,19,39,0.01
2013-3-20,31.3,26.3,21.5,23.4,17.3,11.9,80,69,55,29.91,29.82,26,13,34,0.00
2013-3-21,33.0,23.6,15.6,20.0,15.2,11.0,87,71,49,29.86,29.79,15,8,18,0.00
2013-3-22,41.3,30.4,20.0,25.0,20.3,17.0,88,68,44,29.88,29.80,12,3,0,0.00
2013-3-23,44.8,36.0,29.5,28.0,25.0,22.0,84,66,47,29.89,29.74,8,2,0,0.00
2013-3-24,34.4,30.6,28.3,30.0,27.7,25.0,95,89,74,29.74,29.28,24,13,31,0.04
2013-3-25,33.1,30.1,27.4,32.0,28.7,26.0,96,94,87,29.81,29.33,17,11,23,0.04
2013-3-26,37.3,32.9,29.9,31.0,29.0,27.0,93,86,73,30.05,29.81,19,11,19,0.00
2013-3-27,40.2,33.1,25.7,31.6,27.4,23.0,90,80,60,30.14,30.05,16,9,21,0.00
2013-3-28,44.6,35.7,27.2,31.6,27.9,24.0,89,74,52,30.18,30.10,9,4,14,0.00
2013-3-29,52.8,41.0,29.7,38.6,32.5,27.4,93,73,47,30.13,30.02,8,2,14,0.00
2013-3-30,55.6,44.0,29.1,39.6,34.3,27.0,94,71,46,30.04,29.73,13,3,19,0.00
2013-3-31,59.1,48.9,42.8,45.7,41.9,37.0,95,78,54,29.73,29.54,28,8,29,0.05